Malden, Washington
Current Conditions -  °F | °C
As of 7:18 PM on Thursday 18 Dec 2014 (Local Time) from KSKA Reporting Station
Haze Haze  
Wind Chill: 32°   Ceiling: 6000
Heat Index: 36°   Visibility: 3mi
Dew Point: 36°   Wind: 5mph
Humidity: 100%   Direction: 60°ENE
Pressure: 29.94"   Gusts: NA
Location:  47.23°N, 117.47°W
Report Text: KSKA 190318Z AUTO 06004KT 3SM BR FEW041 BKN060 02/02 A2994 RMK AO2 DZE06 $
Loading
Personal Weather Stations






























Interactive Weather Map New forecast layout! Learn more

10-Day Weather Forecast

Advertisements
Track Severe Weather on mobile